Time;durP1;ratioP1;P1;durP2;ratioP2;P2;SDS_P1;SDS_P2;PMS_P1;PMS_P2;Temp;Humidity;BMP_temperature;BMP_pressure;BME280_temperature;BME280_humidity;BME280_pressure;Samples;Min_cycle;Max_cycle;Signal;HPM_P1;HPM_P2
2022/06/15 00:00:07;;;;;;;;;;;;;;;12.39;100.00;99363.63;5074810;28;19925;-77
2022/06/15 00:02:37;;;;;;;;;;;;;;;12.81;100.00;99368.44;5074748;28;20364;-77
2022/06/15 00:05:05;;;;;;;;;;;;;;;13.22;100.00;99363.19;5091961;28;19946;-77
2022/06/15 00:07:32;;;;;;;;;;;;;;;13.42;100.00;99360.34;5076117;28;20012;-77
2022/06/15 00:10:00;;;;;;;;;;;;;;;13.27;100.00;99350.69;5074723;28;19924;-77
2022/06/15 00:12:28;;;;;;;;;;;;;;;13.39;100.00;99350.00;5072849;28;19928;-77
2022/06/15 00:14:56;;;;;;;;;;;;;;;13.40;100.00;99345.97;5075892;28;20425;-77
2022/06/15 00:17:23;;;;;;;;;;;;;;;13.37;100.00;99349.63;5075933;28;19925;-77
2022/06/15 00:19:51;;;;;;;;;;;;;;;12.73;100.00;99344.56;5075714;28;20367;-77
2022/06/15 00:22:18;;;;;;;;;;;;;;;13.04;100.00;99337.53;5075605;28;20018;-77
2022/06/15 00:24:46;;;;;;;;;;;;;;;12.98;100.00;99332.84;5075531;28;19925;-77
2022/06/15 00:27:13;;;;;;;;;;;;;;;12.52;100.00;99326.19;5075360;28;19929;-77
2022/06/15 00:29:41;;;;;;;;;;;;;;;11.85;100.00;99335.00;5075290;28;20367;-77
2022/06/15 00:32:08;;;;;;;;;;;;;;;11.78;100.00;99331.53;5075363;28;19925;-77
2022/06/15 00:34:36;;;;;;;;;;;;;;;12.27;100.00;99339.03;5074308;28;19931;-77
2022/06/15 00:37:05;;;;;;;;;;;;;;;12.85;100.00;99343.13;5073842;28;20372;-77
2022/06/15 00:39:34;;;;;;;;;;;;;;;13.09;100.00;99344.63;5075182;28;20391;-77
2022/06/15 00:42:02;;;;;;;;;;;;;;;12.98;100.00;99338.44;5075622;28;19925;-77
2022/06/15 00:44:31;;;;;;;;;;;;;;;11.84;100.00;99336.22;5075017;28;19924;-77
2022/06/15 00:47:01;;;;;;;;;;;;;;;11.43;100.00;99337.66;5074041;28;19931;-76
2022/06/15 00:49:30;;;;;;;;;;;;;;;11.72;100.00;99336.78;5075179;28;19994;-76
2022/06/15 00:52:07;;;;;;;;;;;;;;;12.28;100.00;99323.84;5074671;28;19964;-77
2022/06/15 00:54:36;;;;;;;;;;;;;;;12.64;100.00;99328.34;5073113;28;20291;-76
2022/06/15 00:57:04;;;;;;;;;;;;;;;12.80;100.00;99327.59;5073604;28;19931;-77
2022/06/15 00:59:52;;;;;;;;;;;;;;;12.93;100.00;99320.13;5073869;28;19939;-77
2022/06/15 01:02:20;;;;;;;;;;;;;;;12.98;100.00;99316.00;5075050;28;19924;-77
2022/06/15 01:04:53;;;;;;;;;;;;;;;13.09;100.00;99319.38;5075164;28;20019;-77
2022/06/15 01:07:21;;;;;;;;;;;;;;;13.12;100.00;99310.91;5074695;28;19939;-77
2022/06/15 01:10:01;;;;;;;;;;;;;;;12.95;100.00;99311.28;5074552;28;19949;-76
2022/06/15 01:12:36;;;;;;;;;;;;;;;12.95;100.00;99311.28;5073680;28;19925;-76
2022/06/15 01:15:12;;;;;;;;;;;;;;;13.06;100.00;99317.44;5074736;28;19935;-77
2022/06/15 01:17:49;;;;;;;;;;;;;;;12.93;100.00;99308.09;5074833;28;19928;-76
2022/06/15 01:20:36;;;;;;;;;;;;;;;12.94;100.00;99313.28;5073230;28;19925;-76
2022/06/15 01:23:11;;;;;;;;;;;;;;;12.73;100.00;99311.72;5074376;28;19931;-77
2022/06/15 01:25:59;;;;;;;;;;;;;;;12.33;100.00;99298.91;5074682;28;20445;-76
2022/06/15 01:28:33;;;;;;;;;;;;;;;12.37;100.00;99307.25;5070810;28;19924;-76
2022/06/15 01:31:04;;;;;;;;;;;;;;;12.08;100.00;99304.19;5073166;28;19924;-76
2022/06/15 01:33:32;;;;;;;;;;;;;;;12.37;100.00;99315.66;5106981;28;19931;-76
2022/06/15 01:36:17;;;;;;;;;;;;;;;12.13;100.00;99312.09;5074432;28;19925;-76
2022/06/15 01:38:45;;;;;;;;;;;;;;;11.79;100.00;99310.72;5073659;28;19925;-76
2022/06/15 01:41:28;;;;;;;;;;;;;;;12.23;100.00;99305.50;5074274;28;19924;-76
2022/06/15 01:44:08;;;;;;;;;;;;;;;12.13;100.00;99316.91;5074221;28;20001;-76
2022/06/15 01:46:38;;;;;;;;;;;;;;;11.66;100.00;99313.31;5073059;28;19932;-77
2022/06/15 01:49:08;;;;;;;;;;;;;;;11.34;100.00;99315.81;5106831;28;20348;-77
2022/06/15 01:51:40;;;;;;;;;;;;;;;10.61;100.00;99317.59;5074319;28;19924;-76
2022/06/15 01:54:10;;;;;;;;;;;;;;;11.23;100.00;99320.75;5073889;28;19950;-76
2022/06/15 01:56:42;;;;;;;;;;;;;;;11.39;100.00;99317.34;5056714;28;19937;-76
2022/06/15 01:59:20;;;;;;;;;;;;;;;11.85;100.00;99321.00;5106590;28;19925;-76
2022/06/15 02:01:56;;;;;;;;;;;;;;;11.90;100.00;99312.13;5073061;28;19924;-76
2022/06/15 02:04:35;;;;;;;;;;;;;;;11.65;100.00;99303.34;5106500;28;19947;-76
2022/06/15 02:07:14;;;;;;;;;;;;;;;11.25;100.00;99309.94;5073680;28;19970;-76
2022/06/15 02:09:48;;;;;;;;;;;;;;;11.32;100.00;99309.03;5055915;28;20368;-76
2022/06/15 02:12:18;;;;;;;;;;;;;;;10.81;100.00;99315.75;5072771;28;19924;-76
2022/06/15 02:14:52;;;;;;;;;;;;;;;10.79;100.00;99318.97;5106553;28;19925;-76
2022/06/15 02:17:23;;;;;;;;;;;;;;;10.65;100.00;99313.56;5056222;28;19931;-76
2022/06/15 02:19:54;;;;;;;;;;;;;;;10.92;100.00;99308.00;5106244;28;19924;-76
2022/06/15 02:22:26;;;;;;;;;;;;;;;10.74;100.00;99310.25;5088854;28;20015;-76
2022/06/15 02:24:55;;;;;;;;;;;;;;;10.31;100.00;99320.34;5073821;28;19932;-76
2022/06/15 02:27:26;;;;;;;;;;;;;;;10.18;100.00;99316.47;5106416;28;19924;-76
2022/06/15 02:29:56;;;;;;;;;;;;;;;10.98;100.00;99309.13;5055321;28;19933;-76
2022/06/15 02:32:24;;;;;;;;;;;;;;;11.08;100.00;99313.78;5072002;28;19924;-76
2022/06/15 02:34:51;;;;;;;;;;;;;;;10.25;100.00;99316.41;5072737;28;20383;-76
2022/06/15 02:37:19;;;;;;;;;;;;;;;10.20;100.00;99314.88;5105832;28;19931;-76
2022/06/15 02:39:47;;;;;;;;;;;;;;;10.55;100.00;99319.28;5072360;28;19974;-76
2022/06/15 02:42:21;;;;;;;;;;;;;;;11.06;100.00;99307.81;5073763;28;20011;-76
2022/06/15 02:44:56;;;;;;;;;;;;;;;11.41;100.00;99303.69;5105821;28;19970;-76
2022/06/15 02:47:27;;;;;;;;;;;;;;;11.62;100.00;99304.19;5072319;28;19932;-77
2022/06/15 02:49:55;;;;;;;;;;;;;;;11.58;100.00;99303.44;5089557;28;19924;-77
2022/06/15 02:52:28;;;;;;;;;;;;;;;11.52;100.00;99299.53;5076131;28;19976;-76
2022/06/15 02:54:56;;;;;;;;;;;;;;;11.63;100.00;99291.75;5076305;28;20402;-76
2022/06/15 02:57:26;;;;;;;;;;;;;;;11.59;100.00;99293.81;5076325;28;19925;-76
2022/06/15 02:59:55;;;;;;;;;;;;;;;11.55;100.00;99290.28;5076225;28;19992;-76
2022/06/15 03:02:27;;;;;;;;;;;;;;;11.47;100.00;99286.00;5077237;28;19969;-76
2022/06/15 03:04:56;;;;;;;;;;;;;;;11.31;100.00;99294.28;5059255;28;20023;-76
2022/06/15 03:07:26;;;;;;;;;;;;;;;11.28;100.00;99281.13;5076123;28;19931;-77
2022/06/15 03:09:56;;;;;;;;;;;;;;;11.30;100.00;99281.47;5076001;28;20276;-76
2022/06/15 03:12:24;;;;;;;;;;;;;;;10.87;100.00;99277.75;5109429;28;19956;-76
2022/06/15 03:14:53;;;;;;;;;;;;;;;10.47;100.00;99279.44;5077300;28;19925;-76
2022/06/15 03:17:22;;;;;;;;;;;;;;;10.49;100.00;99281.81;5059207;28;20397;-76
2022/06/15 03:19:56;;;;;;;;;;;;;;;9.80;100.00;99289.75;5109370;28;20010;-76
2022/06/15 03:22:25;;;;;;;;;;;;;;;10.02;100.00;99280.72;5075663;28;20311;-76
2022/06/15 03:24:57;;;;;;;;;;;;;;;9.82;100.00;99287.31;5059331;28;19925;-77
2022/06/15 03:27:25;;;;;;;;;;;;;;;10.55;100.00;99291.34;5109294;28;19933;-76
2022/06/15 03:29:54;;;;;;;;;;;;;;;10.21;100.00;99287.72;5075483;28;19943;-76
2022/06/15 03:32:24;;;;;;;;;;;;;;;10.48;100.00;99281.03;5092466;28;20353;-76
2022/06/15 03:35:02;;;;;;;;;;;;;;;10.91;100.00;99278.47;5076335;28;19932;-76
2022/06/15 03:37:32;;;;;;;;;;;;;;;11.03;100.00;99280.69;5109510;28;19978;-76
2022/06/15 03:40:29;;;;;;;;;;;;;;;11.09;100.00;99278.22;5075794;28;19928;-76
2022/06/15 03:42:57;;;;;;;;;;;;;;;10.94;100.00;99266.44;5075249;28;20345;-76
2022/06/15 03:45:26;;;;;;;;;;;;;;;10.99;100.00;99272.34;5076540;28;20295;-76
2022/06/15 03:47:55;;;;;;;;;;;;;;;11.35;100.00;99269.03;5075109;28;20338;-76
2022/06/15 03:50:24;;;;;;;;;;;;;;;11.29;100.00;99263.13;5092093;28;19928;-76
2022/06/15 03:52:56;;;;;;;;;;;;;;;10.92;100.00;99272.47;5058272;28;20359;-76
2022/06/15 03:55:28;;;;;;;;;;;;;;;10.88;100.00;99273.72;5076281;28;20263;-77
2022/06/15 03:57:57;;;;;;;;;;;;;;;10.93;100.00;99264.88;5108558;28;19924;-76
2022/06/15 04:00:25;;;;;;;;;;;;;;;11.17;100.00;99260.91;5074539;28;19977;-76
2022/06/15 04:02:53;;;;;;;;;;;;;;;11.01;100.00;99263.56;5075897;28;19925;-76
2022/06/15 04:05:42;;;;;;;;;;;;;;;11.08;100.00;99257.84;5075999;28;19973;-76
2022/06/15 04:14:16;;;;;;;;;;;;;;;10.52;100.00;99261.44;5074849;28;19929;-76
2022/06/15 04:16:53;;;;;;;;;;;;;;;11.01;100.00;99263.56;5075618;28;20022;-77
2022/06/15 04:19:27;;;;;;;;;;;;;;;11.18;100.00;99262.50;5058014;28;20022;-76
2022/06/15 04:21:57;;;;;;;;;;;;;;;11.38;100.00;99255.00;5075894;28;19959;-76
2022/06/15 04:24:28;;;;;;;;;;;;;;;10.72;100.00;99251.97;5075834;28;20288;-76
2022/06/15 04:26:59;;;;;;;;;;;;;;;11.32;100.00;99247.50;5107734;28;19924;-76
2022/06/15 04:29:26;;;;;;;;;;;;;;;10.66;100.00;99264.06;5074301;28;19924;-76
2022/06/15 04:31:56;;;;;;;;;;;;;;;10.53;100.00;99271.38;5107622;28;19930;-77
2022/06/15 04:34:27;;;;;;;;;;;;;;;9.97;100.00;99277.59;5075445;28;19963;-76
2022/06/15 04:36:55;;;;;;;;;;;;;;;9.99;100.00;99281.56;5074279;28;20418;-76
2022/06/15 04:39:22;;;;;;;;;;;;;;;10.82;100.00;99272.59;5075605;28;19925;-76
2022/06/15 04:41:52;;;;;;;;;;;;;;;10.68;100.00;99283.97;5090750;28;19963;-76
2022/06/15 04:44:19;;;;;;;;;;;;;;;10.99;100.00;99279.97;5075405;28;20376;-76
2022/06/15 04:46:50;;;;;;;;;;;;;;;11.15;100.00;99290.53;5090545;28;20330;-76
2022/06/15 04:49:21;;;;;;;;;;;;;;;10.45;100.00;99281.09;5075253;28;19925;-76
2022/06/15 04:51:53;;;;;;;;;;;;;;;10.53;100.00;99291.75;5075008;28;19924;-76
2022/06/15 04:54:22;;;;;;;;;;;;;;;11.22;100.00;99288.41;5073778;28;19983;-76
2022/06/15 04:56:53;;;;;;;;;;;;;;;11.69;100.00;99286.50;5073765;28;20023;-76
2022/06/15 04:59:22;;;;;;;;;;;;;;;11.92;100.00;99283.69;5074957;28;19947;-76
2022/06/15 05:01:51;;;;;;;;;;;;;;;12.18;100.00;99280.78;5073327;28;19925;-76
2022/06/15 05:04:20;;;;;;;;;;;;;;;12.52;100.00;99284.13;5073759;28;19948;-76
2022/06/15 05:06:48;;;;;;;;;;;;;;;12.74;100.00;99290.88;5074696;28;19925;-76
2022/06/15 05:09:16;;;;;;;;;;;;;;;11.99;100.00;99289.97;5107097;28;19924;-76
2022/06/15 05:11:47;;;;;;;;;;;;;;;11.61;100.00;99285.78;5073376;28;19955;-76
2022/06/15 05:14:16;;;;;;;;;;;;;;;11.77;100.00;99294.34;5106565;28;20387;-76
2022/06/15 05:16:46;;;;;;;;;;;;;;;12.22;100.00;99298.31;5074425;28;19938;-76
2022/06/15 05:19:17;;;;;;;;;;;;;;;12.62;100.00;99290.72;5073265;28;19955;-76
2022/06/15 05:21:46;;;;;;;;;;;;;;;12.61;100.00;99292.75;5107138;28;19974;-76
2022/06/15 05:24:16;;;;;;;;;;;;;;;12.66;100.00;99306.25;5074540;28;20382;-76
2022/06/15 05:27:06;;;;;;;;;;;;;;;12.51;100.00;99304.94;5074525;28;19929;-76
2022/06/15 05:29:35;;;;;;;;;;;;;;;12.51;100.00;99309.78;5072804;28;20328;-76
2022/06/15 05:32:17;;;;;;;;;;;;;;;12.91;100.00;99316.16;5106831;28;19925;-76
2022/06/15 05:34:44;;;;;;;;;;;;;;;13.05;100.00;99315.88;5073172;28;19960;-76
2022/06/15 05:37:17;;;;;;;;;;;;;;;12.95;100.00;99322.50;5074252;28;19970;-76
2022/06/15 05:39:44;;;;;;;;;;;;;;;13.11;100.00;99322.56;5074205;28;19936;-76
2022/06/15 05:42:12;;;;;;;;;;;;;;;13.54;100.00;99320.38;5072631;28;19931;-76
2022/06/15 05:47:12;;;;;;;;;;;;;;;13.88;100.00;99317.91;5073626;28;19924;-76
2022/06/15 05:50:00;;;;;;;;;;;;;;;14.24;100.00;99312.97;5072882;28;19924;-76
2022/06/15 05:52:36;;;;;;;;;;;;;;;14.32;100.00;99317.19;5073935;28;19929;-76
2022/06/15 05:55:04;;;;;;;;;;;;;;;14.54;100.00;99309.72;5106323;28;19925;-76
2022/06/15 05:57:32;;;;;;;;;;;;;;;14.98;100.00;99310.91;5072809;28;19974;-74
2022/06/15 06:00:00;;;;;;;;;;;;;;;15.14;100.00;99314.41;5072279;28;20383;-77
2022/06/15 06:02:28;;;;;;;;;;;;;;;15.47;100.00;99313.00;5073717;28;19925;-77
2022/06/15 06:04:55;;;;;;;;;;;;;;;15.42;100.00;99299.47;5073852;28;20413;-77
2022/06/15 06:07:23;;;;;;;;;;;;;;;15.91;100.00;99300.69;5072461;28;19932;-77
2022/06/15 06:09:51;;;;;;;;;;;;;;;16.18;100.00;99300.94;5072827;28;19967;-77
2022/06/15 06:12:18;;;;;;;;;;;;;;;15.95;100.00;99303.38;5073352;28;20382;-77
2022/06/15 06:14:46;;;;;;;;;;;;;;;16.31;100.00;99302.94;5073405;28;19991;-77
2022/06/15 06:17:14;;;;;;;;;;;;;;;16.83;100.00;99303.06;5072468;28;19970;-77
2022/06/15 06:19:41;;;;;;;;;;;;;;;17.30;100.00;99295.19;5073839;28;19931;-77
2022/06/15 06:22:09;;;;;;;;;;;;;;;17.43;100.00;99298.72;5073783;28;19931;-79
2022/06/15 06:24:38;;;;;;;;;;;;;;;17.52;100.00;99293.13;5073709;28;19925;-80
2022/06/15 06:27:06;;;;;;;;;;;;;;;17.45;100.00;99276.47;5072218;28;19932;-79
2022/06/15 06:29:35;;;;;;;;;;;;;;;17.48;100.00;99284.00;5072938;28;20395;-80
2022/06/15 06:32:07;;;;;;;;;;;;;;;17.46;100.00;99287.28;5055570;28;19928;-79
2022/06/15 06:34:35;;;;;;;;;;;;;;;17.31;100.00;99285.50;5073903;28;19931;-79
2022/06/15 06:37:05;;;;;;;;;;;;;;;17.31;100.00;99288.31;5039502;28;19924;-80
2022/06/15 06:39:34;;;;;;;;;;;;;;;17.39;100.00;99289.59;5072743;28;20415;-80
2022/06/15 06:42:02;;;;;;;;;;;;;;;17.47;100.00;99288.88;5072656;28;19924;-79
2022/06/15 06:44:34;;;;;;;;;;;;;;;17.80;100.00;99283.50;5072849;28;19928;-80
2022/06/15 06:47:03;;;;;;;;;;;;;;;18.44;100.00;99284.41;5055734;28;19931;-78
2022/06/15 06:49:30;;;;;;;;;;;;;;;18.82;100.00;99288.31;5072389;28;19924;-78
2022/06/15 06:51:58;;;;;;;;;;;;;;;19.29;100.00;99287.75;5073460;28;19924;-79
2022/06/15 06:54:31;;;;;;;;;;;;;;;19.76;100.00;99281.41;5072348;28;20139;-80
2022/06/15 06:56:59;;;;;;;;;;;;;;;20.39;100.00;99283.88;5071823;28;19974;-83
2022/06/15 07:08:20;;;;;;;;;;;;;;;22.27;100.00;99280.16;5011937;28;19923;-81
2022/06/15 07:10:48;;;;;;;;;;;;;;;22.89;100.00;99282.47;5011519;28;20280;-81
2022/06/15 07:13:16;;;;;;;;;;;;;;;23.54;100.00;99269.41;4995060;28;19925;-82
2022/06/15 07:15:50;;;;;;;;;;;;;;;25.14;100.00;99273.81;4995603;28;19961;-81
2022/06/15 07:23:13;;;;;;;;;;;;;;;26.72;100.00;99247.53;4972093;28;20471;-80
2022/06/15 07:25:41;;;;;;;;;;;;;;;27.33;100.00;99247.97;5010904;28;20411;-80
2022/06/15 07:28:08;;;;;;;;;;;;;;;28.11;100.00;99243.03;5011570;28;19957;-81
2022/06/15 07:30:58;;;;;;;;;;;;;;;;;;;;;
2022/06/15 07:34:54;;;;;;;;;;;;;;;28.40;100.00;99241.41;5006981;28;19972;-81
2022/06/15 07:37:22;;;;;;;;;;;;;;;28.23;100.00;99248.66;4997909;28;19925;-81
2022/06/15 07:40:11;;;;;;;;;;;;;;;27.50;100.00;99256.44;5014727;28;20061;-82
2022/06/15 07:42:46;;;;;;;;;;;;;;;26.17;100.00;99257.13;4998422;28;20443;-82
2022/06/15 07:46:46;;;;;;;;;;;;;;;26.01;100.00;99257.97;5034339;28;20344;-78
2022/06/15 07:52:04;;;;;;;;;;;;;;;26.25;100.00;99266.75;5033911;28;19925;-78
2022/06/15 07:54:32;;;;;;;;;;;;;;;25.37;100.00;99258.25;5033724;28;19932;-78
2022/06/15 07:56:59;;;;;;;;;;;;;;;25.71;100.00;99259.81;5034107;28;20002;-78
2022/06/15 07:59:27;;;;;;;;;;;;;;;26.46;100.00;99262.22;5034871;28;20011;-78
2022/06/15 08:01:55;;;;;;;;;;;;;;;26.76;100.00;99253.00;5036185;28;19925;-77
2022/06/15 08:04:22;;;;;;;;;;;;;;;27.47;100.00;99263.22;5036237;28;20019;-78
2022/06/15 08:06:50;;;;;;;;;;;;;;;27.40;100.00;99240.88;5067843;28;19932;-78
2022/06/15 08:09:19;;;;;;;;;;;;;;;28.10;100.00;99246.47;5034562;28;19925;-78
2022/06/15 08:14:36;;;;;;;;;;;;;;;29.24;100.00;99238.97;5048620;28;19932;-78
2022/06/15 08:17:04;;;;;;;;;;;;;;;29.08;100.00;99234.25;5055614;28;19925;-76
2022/06/15 08:19:34;;;;;;;;;;;;;;;28.53;100.00;99232.91;5054389;28;19925;-77
2022/06/15 08:22:06;;;;;;;;;;;;;;;27.71;100.00;99232.50;5051791;28;19925;-77
2022/06/15 08:24:37;;;;;;;;;;;;;;;27.93;100.00;99238.03;5054908;28;19930;-82
2022/06/15 08:27:05;;;;;;;;;;;;;;;28.63;100.00;99224.69;5038441;28;19925;-83
2022/06/15 08:29:33;;;;;;;;;;;;;;;28.55;100.00;99224.50;5052021;28;20435;-82
2022/06/15 08:32:01;;;;;;;;;;;;;;;28.10;100.00;99229.22;5073837;28;19929;-78
2022/06/15 08:34:33;;;;;;;;;;;;;;;27.85;100.00;99236.25;5071034;28;19924;-78
2022/06/15 08:37:01;;;;;;;;;;;;;;;27.74;100.00;99225.69;5075369;28;20372;-78
2022/06/15 08:39:28;;;;;;;;;;;;;;;26.69;100.00;99224.91;5075102;28;19924;-77
2022/06/15 08:41:58;;;;;;;;;;;;;;;26.03;100.00;99218.16;5075354;28;20387;-78
2022/06/15 08:44:35;;;;;;;;;;;;;;;26.02;100.00;99239.47;5074194;28;19928;-77
2022/06/15 08:47:03;;;;;;;;;;;;;;;26.84;100.00;99228.22;5075414;28;20539;-76
2022/06/15 08:49:40;;;;;;;;;;;;;;;26.64;100.00;99231.44;5075305;28;20380;-78
2022/06/15 08:52:20;;;;;;;;;;;;;;;28.00;100.00;99233.78;5075290;28;19978;-78
2022/06/15 08:54:55;;;;;;;;;;;;;;;27.31;100.00;99227.63;5057994;28;19925;-79
2022/06/15 08:57:52;;;;;;;;;;;;;;;27.88;100.00;99229.47;5074249;28;19931;-78
2022/06/15 09:00:25;;;;;;;;;;;;;;;27.59;100.00;99230.25;5070566;28;20006;-78
2022/06/15 09:03:11;;;;;;;;;;;;;;;26.62;100.00;99234.03;5075509;28;19924;-78
2022/06/15 09:05:49;;;;;;;;;;;;;;;27.32;100.00;99228.41;5073942;28;20011;-77
2022/06/15 09:08:23;;;;;;;;;;;;;;;27.16;100.00;99232.16;5074811;28;19936;-78
2022/06/15 09:10:54;;;;;;;;;;;;;;;27.77;100.00;99232.41;5075069;28;19978;-78
2022/06/15 09:13:42;;;;;;;;;;;;;;;28.27;100.00;99226.94;5073745;28;20396;-79
2022/06/15 09:16:26;;;;;;;;;;;;;;;28.26;100.00;99224.59;5074780;28;20261;-78
2022/06/15 09:18:54;;;;;;;;;;;;;;;26.31;100.00;99233.13;5074859;28;19944;-78
2022/06/15 09:21:24;;;;;;;;;;;;;;;25.26;100.00;99229.66;5047610;28;19932;-77
2022/06/15 09:23:55;;;;;;;;;;;;;;;25.14;100.00;99239.53;5055191;28;20372;-75
2022/06/15 09:26:38;;;;;;;;;;;;;;;25.42;100.00;99237.47;5053603;28;20030;-77
2022/06/15 09:29:08;;;;;;;;;;;;;;;25.56;100.00;99236.44;5055199;28;20284;-78
2022/06/15 09:31:42;;;;;;;;;;;;;;;24.84;100.00;99244.13;5065804;28;19928;-77
2022/06/15 09:34:13;;;;;;;;;;;;;;;25.86;100.00;99254.59;5059344;28;19924;-78
2022/06/15 09:36:48;;;;;;;;;;;;;;;26.19;100.00;99248.78;5075996;28;19964;-77
2022/06/15 09:39:17;;;;;;;;;;;;;;;25.26;100.00;99243.94;5094624;28;20333;-78
2022/06/15 09:42:04;;;;;;;;;;;;;;;24.66;100.00;99253.19;5094478;28;19993;-78
2022/06/15 09:44:34;;;;;;;;;;;;;;;24.78;100.00;99254.75;5094703;28;19924;-77
2022/06/15 09:47:16;;;;;;;;;;;;;;;24.66;100.00;99250.31;5076614;28;19930;-77
2022/06/15 09:49:52;;;;;;;;;;;;;;;24.41;100.00;99251.25;5076458;28;19924;-78
2022/06/15 09:52:20;;;;;;;;;;;;;;;24.14;100.00;99254.78;5094417;28;19928;-78
2022/06/15 09:55:07;;;;;;;;;;;;;;;24.80;100.00;99255.03;5076217;28;19924;-78
2022/06/15 09:57:37;;;;;;;;;;;;;;;24.27;100.00;99246.50;5094391;28;19924;-77
2022/06/15 10:00:06;;;;;;;;;;;;;;;24.24;100.00;99259.75;5075104;28;19924;-77
2022/06/15 10:02:38;;;;;;;;;;;;;;;23.80;100.00;99259.47;5091843;28;19928;-78
2022/06/15 10:05:12;;;;;;;;;;;;;;;23.48;100.00;99257.16;5093743;28;19989;-77
2022/06/15 10:07:41;;;;;;;;;;;;;;;24.14;100.00;99260.47;5094114;28;19931;-78
2022/06/15 10:10:18;;;;;;;;;;;;;;;24.36;100.00;99252.00;5076016;28;19925;-78
2022/06/15 10:12:57;;;;;;;;;;;;;;;25.31;100.00;99248.88;5076159;28;19931;-78
2022/06/15 10:15:36;;;;;;;;;;;;;;;25.43;100.00;99243.97;5094464;28;19924;-76
2022/06/15 10:18:14;;;;;;;;;;;;;;;25.34;100.00;99247.84;5094041;28;19924;-77
2022/06/15 10:20:53;;;;;;;;;;;;;;;25.15;100.00;99243.94;5093903;28;19977;-78
2022/06/15 10:23:23;;;;;;;;;;;;;;;24.73;100.00;99244.13;5093842;28;20010;-78
2022/06/15 10:25:52;;;;;;;;;;;;;;;25.50;100.00;99244.22;5075993;28;19939;-77
2022/06/15 10:28:47;;;;;;;;;;;;;;;26.10;100.00;99246.22;5152719;27;20259;-79
2022/06/15 10:31:16;;;;;;;;;;;;;;;25.94;100.00;99238.44;5152797;27;19924;-79
2022/06/15 10:33:48;;;;;;;;;;;;;;;26.35;100.00;99245.09;5152939;27;19927;-79
2022/06/15 10:36:26;;;;;;;;;;;;;;;26.13;100.00;99239.44;5152668;27;19923;-79
2022/06/15 10:39:00;;;;;;;;;;;;;;;26.02;100.00;99245.19;5152811;27;20014;-79
2022/06/15 10:41:49;;;;;;;;;;;;;;;25.71;100.00;99239.78;5152607;27;20443;-79
2022/06/15 10:44:32;;;;;;;;;;;;;;;25.38;100.00;99251.25;5136046;27;19923;-79
2022/06/15 10:47:18;;;;;;;;;;;;;;;25.83;100.00;99249.13;5152478;27;19930;-78
2022/06/15 10:49:48;;;;;;;;;;;;;;;24.95;100.00;99243.41;5152027;27;20052;-79
2022/06/15 10:52:29;;;;;;;;;;;;;;;25.04;100.00;99255.34;5134092;27;19923;-79
2022/06/15 11:04:05;;;;;;;;;;;;;;;26.09;100.00;99243.88;5152099;27;20335;-79
2022/06/15 11:06:38;;;;;;;;;;;;;;;25.95;100.00;99254.31;5117011;27;19924;-79
2022/06/15 11:09:15;;;;;;;;;;;;;;;25.94;100.00;99247.03;5115800;27;20338;-77
2022/06/15 11:11:43;;;;;;;;;;;;;;;25.71;100.00;99254.09;5151945;27;19924;-78
2022/06/15 11:14:18;;;;;;;;;;;;;;;25.63;100.00;99255.91;5152063;27;19923;-79
2022/06/15 11:19:38;;;;;;;;;;;;;;;24.85;100.00;99245.72;5151848;27;19930;-80
2022/06/15 11:22:16;;;;;;;;;;;;;;;24.79;100.00;99264.91;5133312;27;19924;-79
2022/06/15 11:24:56;;;;;;;;;;;;;;;25.20;100.00;99248.88;5116643;27;20018;-80
2022/06/15 11:27:26;;;;;;;;;;;;;;;25.33;100.00;99251.25;5151586;27;19930;-80
2022/06/15 11:29:59;;;;;;;;;;;;;;;25.38;100.00;99245.53;5133250;27;19988;-80
2022/06/15 11:32:51;;;;;;;;;;;;;;;25.28;100.00;99247.03;5151727;27;20030;-79
2022/06/15 11:35:18;;;;;;;;;;;;;;;24.97;100.00;99246.50;5133264;27;19974;-79
2022/06/15 11:37:55;;;;;;;;;;;;;;;25.10;100.00;99250.41;5133051;27;19923;-79
2022/06/15 11:40:26;;;;;;;;;;;;;;;24.72;100.00;99249.03;5137337;27;20011;-79
2022/06/15 11:42:54;;;;;;;;;;;;;;;25.27;100.00;99254.06;5137902;27;19972;-79
2022/06/15 11:45:46;;;;;;;;;;;;;;;25.02;100.00;99252.25;5137690;27;19931;-80
2022/06/15 11:48:19;;;;;;;;;;;;;;;24.29;100.00;99255.34;5119137;27;19953;-79
2022/06/15 11:51:03;;;;;;;;;;;;;;;24.12;100.00;99257.34;5119682;27;19931;-80
2022/06/15 11:53:31;;;;;;;;;;;;;;;24.29;100.00;99261.06;5137566;27;19923;-79
2022/06/15 11:56:11;;;;;;;;;;;;;;;24.68;100.00;99253.44;5137920;27;20315;-80
2022/06/15 11:58:39;;;;;;;;;;;;;;;24.60;100.00;99249.50;5119461;27;19934;-79
2022/06/15 12:01:25;;;;;;;;;;;;;;;24.70;100.00;99239.44;5101872;27;19976;-78
2022/06/15 12:03:53;;;;;;;;;;;;;;;23.83;100.00;99243.38;5137282;27;19978;-78
2022/06/15 12:06:25;;;;;;;;;;;;;;;24.20;100.00;99241.31;5137409;27;20018;-79
2022/06/15 12:08:59;;;;;;;;;;;;;;;24.44;100.00;99242.44;5118884;27;19931;-79
2022/06/15 12:14:40;;;;;;;;;;;;;;;25.16;100.00;99239.75;5101814;27;19961;-79
2022/06/15 12:17:07;;;;;;;;;;;;;;;24.25;100.00;99224.19;5118406;27;20018;-78
2022/06/15 12:19:53;;;;;;;;;;;;;;;24.09;100.00;99246.94;5101652;27;19934;-78
2022/06/15 12:22:25;;;;;;;;;;;;;;;24.03;100.00;99235.50;5118696;27;19923;-79
2022/06/15 12:25:02;;;;;;;;;;;;;;;24.02;100.00;99236.03;5136855;27;19929;-79
2022/06/15 12:27:30;;;;;;;;;;;;;;;24.05;100.00;99238.63;5098222;28;20018;-79
2022/06/15 12:30:27;;;;;;;;;;;;;;;24.26;100.00;99239.25;5115187;28;19930;-79
2022/06/15 12:32:57;;;;;;;;;;;;;;;24.31;100.00;99225.00;5099433;28;19930;-79
2022/06/15 12:35:30;;;;;;;;;;;;;;;24.85;100.00;99236.34;5115145;28;19924;-80
2022/06/15 12:38:01;;;;;;;;;;;;;;;25.40;100.00;99227.84;5115182;28;20389;-81
2022/06/15 12:40:30;;;;;;;;;;;;;;;25.84;100.00;99234.28;5115206;28;20275;-81
2022/06/15 12:43:06;;;;;;;;;;;;;;;26.08;100.00;99240.22;5114318;28;19949;-81
2022/06/15 12:45:36;;;;;;;;;;;;;;;26.06;100.00;99239.22;5115991;28;19931;-80
2022/06/15 12:48:09;;;;;;;;;;;;;;;25.94;100.00;99244.16;5114974;28;19923;-80
2022/06/15 12:51:03;;;;;;;;;;;;;;;26.41;100.00;99237.28;5115132;28;19924;-80
2022/06/15 12:53:37;;;;;;;;;;;;;;;26.56;100.00;99236.94;5112952;28;19924;-80
2022/06/15 12:56:32;;;;;;;;;;;;;;;26.37;100.00;99239.63;5097874;28;19923;-79
2022/06/15 12:59:06;;;;;;;;;;;;;;;25.29;100.00;99242.91;5114790;28;20018;-79
2022/06/15 13:01:43;;;;;;;;;;;;;;;25.70;100.00;99243.97;5115856;28;19924;-80
2022/06/15 13:04:31;;;;;;;;;;;;;;;25.63;100.00;99241.59;5114905;28;19977;-80
2022/06/15 13:07:15;;;;;;;;;;;;;;;26.13;100.00;99244.38;5097491;28;19973;-80
2022/06/15 13:10:03;;;;;;;;;;;;;;;25.85;100.00;99250.19;5115581;28;20404;-79
2022/06/15 13:12:37;;;;;;;;;;;;;;;25.00;100.00;99251.19;5115570;28;20022;-78
2022/06/15 13:15:05;;;;;;;;;;;;;;;24.57;100.00;99256.25;5115053;28;19924;-77
2022/06/15 13:18:11;;;;;;;;;;;;;;;24.27;100.00;99266.50;5115478;28;19923;-78
2022/06/15 13:22:23;;;;;;;;;;;;;;;24.44;100.00;99264.50;5152949;27;20328;-78
2022/06/15 13:24:55;;;;;;;;;;;;;;;24.60;100.00;99269.50;5134374;27;19930;-78
2022/06/15 13:27:37;;;;;;;;;;;;;;;24.82;100.00;99261.03;5152686;27;19923;-78
2022/06/15 13:30:23;;;;;;;;;;;;;;;24.47;100.00;99267.13;5152189;27;20018;-75
2022/06/15 13:32:54;;;;;;;;;;;;;;;24.59;100.00;99276.50;5152526;27;19927;-76
2022/06/15 13:35:32;;;;;;;;;;;;;;;24.45;100.00;99268.91;5152786;27;19976;-76
2022/06/15 13:38:02;;;;;;;;;;;;;;;24.90;100.00;99269.88;5152226;27;19931;-76
2022/06/15 13:40:49;;;;;;;;;;;;;;;25.19;100.00;99264.47;5152011;27;20397;-76
2022/06/15 13:43:16;;;;;;;;;;;;;;;25.23;100.00;99279.31;5133319;27;19923;-77
2022/06/15 13:45:44;;;;;;;;;;;;;;;25.31;100.00;99273.84;5152521;27;19923;-75
2022/06/15 13:48:20;;;;;;;;;;;;;;;25.25;100.00;99270.19;5152405;27;20363;-75
2022/06/15 13:50:54;;;;;;;;;;;;;;;25.07;100.00;99287.84;5152488;27;20290;-75
2022/06/15 13:53:33;;;;;;;;;;;;;;;24.84;100.00;99284.13;5152214;27;19923;-76